Terminal Aerodrome Forecast
Issued by NWS Cleveland, OH

Home | Current Version | Previous Version | Text Only | Print | Product List | Glossary Off
Versions: 1 2 3 4 5 6 7 8 9 10 11 12 13 14 15 16 17 18 19 20 21 22

000
FTUS41 KCLE 181700
TAFMFD
TAF
KMFD 181740Z 1818/1918 09007KT P6SM VCSH SCT035 OVC060
     FM182000 06004KT P6SM BKN060
     FM182300 09003KT P6SM SCT060
     FM190600 VRB03KT 5SM BR BKN250
     FM191000 00000KT 1 1/2SM BR BKN250
     FM191400 20006KT P6SM SCT040 BKN100=

USA.gov is the U.S. government's official web portal to all federal, state and local government web resources and services.